sensor_id;sensor_type;location;lat;lon;timestamp;pressure;altitude;pressure_sealevel;temperature;humidity
11440;BME280;5776;51.814;4.510;2022-08-19T00:01:43;101432.00;;;19.55;84.38
11440;BME280;5776;51.814;4.510;2022-08-19T00:04:11;101429.56;;;19.53;84.12
11440;BME280;5776;51.814;4.510;2022-08-19T00:06:40;101426.34;;;19.51;84.37
11440;BME280;5776;51.814;4.510;2022-08-19T00:09:10;101415.97;;;19.48;84.33
11440;BME280;5776;51.814;4.510;2022-08-19T00:11:38;101422.31;;;19.49;84.86
11440;BME280;5776;51.814;4.510;2022-08-19T00:14:06;101425.41;;;19.47;84.62
11440;BME280;5776;51.814;4.510;2022-08-19T00:16:32;101428.00;;;19.43;84.75
11440;BME280;5776;51.814;4.510;2022-08-19T00:18:59;101438.22;;;19.43;84.74
11440;BME280;5776;51.814;4.510;2022-08-19T00:21:25;101442.81;;;19.39;85.40
11440;BME280;5776;51.814;4.510;2022-08-19T00:23:55;101442.31;;;19.37;85.32
11440;BME280;5776;51.814;4.510;2022-08-19T00:26:26;101443.00;;;19.34;85.29
11440;BME280;5776;51.814;4.510;2022-08-19T00:28:54;101436.53;;;19.30;85.30
11440;BME280;5776;51.814;4.510;2022-08-19T00:31:20;101434.91;;;19.29;85.02
11440;BME280;5776;51.814;4.510;2022-08-19T00:33:46;101439.28;;;19.30;85.06
11440;BME280;5776;51.814;4.510;2022-08-19T00:36:15;101432.63;;;19.31;84.85
11440;BME280;5776;51.814;4.510;2022-08-19T00:38:40;101429.66;;;19.36;84.96
11440;BME280;5776;51.814;4.510;2022-08-19T00:41:09;101426.59;;;19.37;84.66
11440;BME280;5776;51.814;4.510;2022-08-19T00:43:35;101432.91;;;19.38;84.74
11440;BME280;5776;51.814;4.510;2022-08-19T00:46:01;101435.19;;;19.36;84.99
11440;BME280;5776;51.814;4.510;2022-08-19T00:48:31;101438.13;;;19.31;85.27
11440;BME280;5776;51.814;4.510;2022-08-19T00:50:58;101438.31;;;19.26;85.74
11440;BME280;5776;51.814;4.510;2022-08-19T00:53:27;101440.44;;;19.29;85.56
11440;BME280;5776;51.814;4.510;2022-08-19T00:55:56;101435.72;;;19.29;85.21
11440;BME280;5776;51.814;4.510;2022-08-19T00:58:27;101444.31;;;19.28;85.50
11440;BME280;5776;51.814;4.510;2022-08-19T01:00:54;101444.19;;;19.24;85.98
11440;BME280;5776;51.814;4.510;2022-08-19T01:03:21;101447.72;;;19.25;85.74
11440;BME280;5776;51.814;4.510;2022-08-19T01:05:48;101446.44;;;19.22;85.48
11440;BME280;5776;51.814;4.510;2022-08-19T01:08:16;101444.00;;;19.20;86.04
11440;BME280;5776;51.814;4.510;2022-08-19T01:10:47;101457.28;;;19.18;85.47
11440;BME280;5776;51.814;4.510;2022-08-19T01:13:16;101452.63;;;19.19;85.48
11440;BME280;5776;51.814;4.510;2022-08-19T01:15:46;101456.50;;;19.18;85.83
11440;BME280;5776;51.814;4.510;2022-08-19T01:18:17;101451.47;;;19.20;86.19
11440;BME280;5776;51.814;4.510;2022-08-19T01:20:44;101446.75;;;19.20;85.94
11440;BME280;5776;51.814;4.510;2022-08-19T01:23:10;101441.59;;;19.19;85.60
11440;BME280;5776;51.814;4.510;2022-08-19T01:25:51;101432.88;;;19.17;86.13
11440;BME280;5776;51.814;4.510;2022-08-19T01:28:24;101438.38;;;19.17;85.47
11440;BME280;5776;51.814;4.510;2022-08-19T01:30:51;101445.84;;;19.16;86.17
11440;BME280;5776;51.814;4.510;2022-08-19T01:33:18;101443.88;;;19.17;86.00
11440;BME280;5776;51.814;4.510;2022-08-19T01:35:45;101441.94;;;19.17;86.04
11440;BME280;5776;51.814;4.510;2022-08-19T01:38:24;101446.16;;;19.15;85.51
11440;BME280;5776;51.814;4.510;2022-08-19T01:40:51;101448.59;;;19.16;86.03
11440;BME280;5776;51.814;4.510;2022-08-19T01:43:17;101443.41;;;19.15;85.86
11440;BME280;5776;51.814;4.510;2022-08-19T01:45:45;101445.34;;;19.14;86.05
11440;BME280;5776;51.814;4.510;2022-08-19T01:48:12;101440.66;;;19.15;86.05
11440;BME280;5776;51.814;4.510;2022-08-19T01:50:38;101444.38;;;19.10;85.95
11440;BME280;5776;51.814;4.510;2022-08-19T01:53:08;101443.59;;;19.10;86.68
11440;BME280;5776;51.814;4.510;2022-08-19T01:55:39;101430.81;;;19.05;86.19
11440;BME280;5776;51.814;4.510;2022-08-19T01:58:11;101429.88;;;19.01;86.38
11440;BME280;5776;51.814;4.510;2022-08-19T02:00:38;101432.47;;;18.97;86.60
11440;BME280;5776;51.814;4.510;2022-08-19T02:03:04;101441.53;;;18.98;86.23
11440;BME280;5776;51.814;4.510;2022-08-19T02:05:30;101434.41;;;18.97;86.24
11440;BME280;5776;51.814;4.510;2022-08-19T02:07:56;101442.69;;;18.97;86.17
11440;BME280;5776;51.814;4.510;2022-08-19T02:10:23;101436.69;;;18.95;86.15
11440;BME280;5776;51.814;4.510;2022-08-19T02:12:49;101442.38;;;18.90;86.48
11440;BME280;5776;51.814;4.510;2022-08-19T02:15:17;101450.50;;;18.86;86.63
11440;BME280;5776;51.814;4.510;2022-08-19T02:17:45;101438.66;;;18.86;86.32
11440;BME280;5776;51.814;4.510;2022-08-19T02:20:11;101443.53;;;18.89;85.97
11440;BME280;5776;51.814;4.510;2022-08-19T02:22:39;101446.91;;;18.94;86.44
11440;BME280;5776;51.814;4.510;2022-08-19T02:25:08;101449.31;;;18.96;86.33
11440;BME280;5776;51.814;4.510;2022-08-19T02:27:34;101438.28;;;18.96;86.26
11440;BME280;5776;51.814;4.510;2022-08-19T02:30:00;101437.16;;;18.97;86.09
11440;BME280;5776;51.814;4.510;2022-08-19T02:32:26;101440.78;;;18.89;86.53
11440;BME280;5776;51.814;4.510;2022-08-19T02:34:52;101441.22;;;18.91;86.69
11440;BME280;5776;51.814;4.510;2022-08-19T02:37:18;101445.25;;;18.93;86.62
11440;BME280;5776;51.814;4.510;2022-08-19T02:40:03;101437.34;;;18.92;87.26
11440;BME280;5776;51.814;4.510;2022-08-19T02:42:30;101431.06;;;18.91;86.43
11440;BME280;5776;51.814;4.510;2022-08-19T02:44:56;101432.66;;;18.92;86.89
11440;BME280;5776;51.814;4.510;2022-08-19T02:47:22;101423.13;;;18.90;86.68
11440;BME280;5776;51.814;4.510;2022-08-19T02:49:48;101426.53;;;18.87;87.13
11440;BME280;5776;51.814;4.510;2022-08-19T02:52:16;101424.59;;;18.87;86.95
11440;BME280;5776;51.814;4.510;2022-08-19T02:54:42;101422.63;;;18.88;86.97
11440;BME280;5776;51.814;4.510;2022-08-19T02:57:08;101429.78;;;18.89;86.64
11440;BME280;5776;51.814;4.510;2022-08-19T02:59:34;101423.31;;;18.85;86.50
11440;BME280;5776;51.814;4.510;2022-08-19T03:02:00;101431.56;;;18.85;86.76
11440;BME280;5776;51.814;4.510;2022-08-19T03:04:26;101425.44;;;18.79;87.45
11440;BME280;5776;51.814;4.510;2022-08-19T03:06:52;101425.75;;;18.77;87.28
11440;BME280;5776;51.814;4.510;2022-08-19T03:09:19;101422.03;;;18.73;87.16
11440;BME280;5776;51.814;4.510;2022-08-19T03:11:46;101417.66;;;18.72;87.12
11440;BME280;5776;51.814;4.510;2022-08-19T03:14:12;101423.94;;;18.73;86.69
11440;BME280;5776;51.814;4.510;2022-08-19T03:16:51;101417.66;;;18.72;86.84
11440;BME280;5776;51.814;4.510;2022-08-19T03:19:19;101410.69;;;18.75;87.05
11440;BME280;5776;51.814;4.510;2022-08-19T03:21:47;101404.38;;;18.74;86.85
11440;BME280;5776;51.814;4.510;2022-08-19T03:24:14;101403.25;;;18.75;87.00
11440;BME280;5776;51.814;4.510;2022-08-19T03:26:43;101409.25;;;18.77;86.56
11440;BME280;5776;51.814;4.510;2022-08-19T03:29:10;101413.28;;;18.80;86.52
11440;BME280;5776;51.814;4.510;2022-08-19T03:31:38;101405.81;;;18.81;87.30
11440;BME280;5776;51.814;4.510;2022-08-19T03:34:04;101406.66;;;18.81;87.08
11440;BME280;5776;51.814;4.510;2022-08-19T03:36:30;101406.16;;;18.79;88.31
11440;BME280;5776;51.814;4.510;2022-08-19T03:38:59;101406.31;;;18.83;87.70
11440;BME280;5776;51.814;4.510;2022-08-19T03:41:35;101411.81;;;18.83;88.18
11440;BME280;5776;51.814;4.510;2022-08-19T03:44:03;101412.28;;;18.85;88.48
11440;BME280;5776;51.814;4.510;2022-08-19T03:46:32;101412.28;;;18.85;88.58
11440;BME280;5776;51.814;4.510;2022-08-19T03:49:00;101411.81;;;18.83;88.96
11440;BME280;5776;51.814;4.510;2022-08-19T03:51:33;101411.00;;;18.82;88.95
11440;BME280;5776;51.814;4.510;2022-08-19T03:54:02;101412.28;;;18.85;89.32
11440;BME280;5776;51.814;4.510;2022-08-19T03:56:28;101419.06;;;18.87;88.65
11440;BME280;5776;51.814;4.510;2022-08-19T03:58:56;101412.28;;;18.85;89.05
11440;BME280;5776;51.814;4.510;2022-08-19T04:01:25;101429.28;;;18.87;88.47
11440;BME280;5776;51.814;4.510;2022-08-19T04:03:58;101440.59;;;18.85;88.71
11440;BME280;5776;51.814;4.510;2022-08-19T04:06:36;101442.25;;;18.86;88.64
11440;BME280;5776;51.814;4.510;2022-08-19T04:09:04;101439.00;;;18.84;89.26
11440;BME280;5776;51.814;4.510;2022-08-19T04:11:41;101435.44;;;18.84;89.21
11440;BME280;5776;51.814;4.510;2022-08-19T04:14:10;101437.06;;;18.85;89.54
11440;BME280;5776;51.814;4.510;2022-08-19T04:16:37;101432.22;;;18.82;89.69
11440;BME280;5776;51.814;4.510;2022-08-19T04:19:04;101428.97;;;18.80;90.35
11440;BME280;5776;51.814;4.510;2022-08-19T04:21:30;101430.44;;;18.77;90.64
11440;BME280;5776;51.814;4.510;2022-08-19T04:23:57;101429.66;;;18.76;90.82
11440;BME280;5776;51.814;4.510;2022-08-19T04:26:25;101436.91;;;18.81;90.35
11440;BME280;5776;51.814;4.510;2022-08-19T04:28:52;101434.78;;;18.87;90.38
11440;BME280;5776;51.814;4.510;2022-08-19T04:31:21;101440.78;;;18.89;90.80
11440;BME280;5776;51.814;4.510;2022-08-19T04:33:48;101436.88;;;18.90;90.40
11440;BME280;5776;51.814;4.510;2022-08-19T04:36:19;101437.00;;;18.93;90.78
11440;BME280;5776;51.814;4.510;2022-08-19T04:38:50;101443.34;;;18.94;89.96
11440;BME280;5776;51.814;4.510;2022-08-19T04:41:18;101442.06;;;18.91;91.19
11440;BME280;5776;51.814;4.510;2022-08-19T04:44:03;101435.72;;;18.91;90.25
11440;BME280;5776;51.814;4.510;2022-08-19T04:46:29;101440.59;;;18.94;90.41
11440;BME280;5776;51.814;4.510;2022-08-19T04:48:59;101436.69;;;18.95;90.96
11440;BME280;5776;51.814;4.510;2022-08-19T04:51:25;101430.69;;;18.93;90.88
11440;BME280;5776;51.814;4.510;2022-08-19T04:53:51;101426.34;;;18.92;91.14
11440;BME280;5776;51.814;4.510;2022-08-19T04:56:19;101435.72;;;18.91;92.09
11440;BME280;5776;51.814;4.510;2022-08-19T04:58:48;101435.72;;;18.91;92.47
11440;BME280;5776;51.814;4.510;2022-08-19T05:01:22;101433.81;;;18.91;92.16
11440;BME280;5776;51.814;4.510;2022-08-19T05:03:48;101440.09;;;18.92;92.38
11440;BME280;5776;51.814;4.510;2022-08-19T05:06:16;101444.47;;;18.93;92.03
11440;BME280;5776;51.814;4.510;2022-08-19T05:08:44;101435.09;;;18.94;91.81
11440;BME280;5776;51.814;4.510;2022-08-19T05:11:13;101442.84;;;18.92;92.16
11440;BME280;5776;51.814;4.510;2022-08-19T05:13:40;101441.72;;;18.93;91.99
11440;BME280;5776;51.814;4.510;2022-08-19T05:16:06;101439.63;;;18.90;92.55
11440;BME280;5776;51.814;4.510;2022-08-19T05:18:32;101442.69;;;18.88;92.22
11440;BME280;5776;51.814;4.510;2022-08-19T05:21:19;101443.97;;;18.91;92.15
11440;BME280;5776;51.814;4.510;2022-08-19T05:24:05;101436.75;;;18.86;92.55
11440;BME280;5776;51.814;4.510;2022-08-19T05:26:40;101434.00;;;18.86;92.86
11440;BME280;5776;51.814;4.510;2022-08-19T05:29:07;101431.06;;;18.83;92.85
11440;BME280;5776;51.814;4.510;2022-08-19T05:31:35;101429.13;;;18.83;93.28
11440;BME280;5776;51.814;4.510;2022-08-19T05:34:02;101429.94;;;18.84;93.10
11440;BME280;5776;51.814;4.510;2022-08-19T05:36:35;101427.84;;;18.81;93.69
11440;BME280;5776;51.814;4.510;2022-08-19T05:39:06;101427.50;;;18.82;93.49
11440;BME280;5776;51.814;4.510;2022-08-19T05:41:32;101428.97;;;18.80;94.28
11440;BME280;5776;51.814;4.510;2022-08-19T05:44:01;101428.97;;;18.80;94.08
11440;BME280;5776;51.814;4.510;2022-08-19T05:46:28;101431.56;;;18.85;93.42
11440;BME280;5776;51.814;4.510;2022-08-19T05:48:55;101438.66;;;18.86;93.59
11440;BME280;5776;51.814;4.510;2022-08-19T05:51:23;101437.06;;;18.85;94.30
11440;BME280;5776;51.814;4.510;2022-08-19T05:53:50;101441.41;;;18.86;94.34
11440;BME280;5776;51.814;4.510;2022-08-19T05:56:16;101441.41;;;18.86;94.69
11440;BME280;5776;51.814;4.510;2022-08-19T05:58:44;101435.91;;;18.86;94.57
11440;BME280;5776;51.814;4.510;2022-08-19T06:01:13;101425.72;;;18.86;94.62
11440;BME280;5776;51.814;4.510;2022-08-19T06:03:40;101434.31;;;18.85;94.94
11440;BME280;5776;51.814;4.510;2022-08-19T06:06:07;101436.88;;;18.90;94.32
11440;BME280;5776;51.814;4.510;2022-08-19T06:08:35;101437.53;;;18.87;95.22
11440;BME280;5776;51.814;4.510;2022-08-19T06:13:52;101430.22;;;18.91;94.61
11440;BME280;5776;51.814;4.510;2022-08-19T06:16:19;101433.44;;;18.93;94.44
11440;BME280;5776;51.814;4.510;2022-08-19T06:18:50;101435.09;;;18.94;94.41
11440;BME280;5776;51.814;4.510;2022-08-19T06:21:21;101443.34;;;18.94;94.66
11440;BME280;5776;51.814;4.510;2022-08-19T06:23:48;101438.97;;;18.93;94.54
11440;BME280;5776;51.814;4.510;2022-08-19T06:26:17;101443.66;;;18.92;95.11
11440;BME280;5776;51.814;4.510;2022-08-19T06:28:45;101444.16;;;18.94;94.46
11440;BME280;5776;51.814;4.510;2022-08-19T06:31:15;101435.09;;;18.94;95.49
11440;BME280;5776;51.814;4.510;2022-08-19T06:33:43;101443.34;;;18.94;95.46
11440;BME280;5776;51.814;4.510;2022-08-19T06:36:24;101436.69;;;18.95;95.45
11440;BME280;5776;51.814;4.510;2022-08-19T06:38:55;101435.22;;;18.97;94.89
11440;BME280;5776;51.814;4.510;2022-08-19T06:41:24;101436.03;;;18.98;94.28
11440;BME280;5776;51.814;4.510;2022-08-19T06:43:50;101441.53;;;18.98;94.62
11440;BME280;5776;51.814;4.510;2022-08-19T06:46:17;101447.03;;;18.98;94.74
11440;BME280;5776;51.814;4.510;2022-08-19T06:48:44;101445.56;;;19.00;94.40
11440;BME280;5776;51.814;4.510;2022-08-19T06:51:10;101451.41;;;18.99;94.75
11440;BME280;5776;51.814;4.510;2022-08-19T06:53:36;101442.00;;;19.00;95.39
11440;BME280;5776;51.814;4.510;2022-08-19T06:56:05;101449.16;;;19.01;95.59
11440;BME280;5776;51.814;4.510;2022-08-19T06:58:30;101448.00;;;19.02;94.64
11440;BME280;5776;51.814;4.510;2022-08-19T07:01:02;101450.75;;;19.02;95.23
11440;BME280;5776;51.814;4.510;2022-08-19T07:03:30;101454.31;;;19.03;94.63
11440;BME280;5776;51.814;4.510;2022-08-19T07:05:57;101447.69;;;19.04;95.01
11440;BME280;5776;51.814;4.510;2022-08-19T07:08:24;101459.13;;;19.06;94.28
11440;BME280;5776;51.814;4.510;2022-08-19T07:10:52;101454.47;;;19.06;93.80
11440;BME280;5776;51.814;4.510;2022-08-19T07:13:19;101458.81;;;19.07;93.42
11440;BME280;5776;51.814;4.510;2022-08-19T07:15:45;101462.06;;;19.09;93.41
11440;BME280;5776;51.814;4.510;2022-08-19T07:18:12;101460.91;;;19.10;93.04
11440;BME280;5776;51.814;4.510;2022-08-19T07:20:39;101458.63;;;19.12;93.43
11440;BME280;5776;51.814;4.510;2022-08-19T07:23:05;101457.47;;;19.13;93.69
11440;BME280;5776;51.814;4.510;2022-08-19T07:25:31;101459.59;;;19.16;92.83
11440;BME280;5776;51.814;4.510;2022-08-19T07:27:57;101457.97;;;19.15;92.65
11440;BME280;5776;51.814;4.510;2022-08-19T07:30:23;101470.94;;;19.15;93.50
11440;BME280;5776;51.814;4.510;2022-08-19T07:32:49;101458.31;;;19.14;92.85
11440;BME280;5776;51.814;4.510;2022-08-19T07:35:17;101467.38;;;19.14;92.45
11440;BME280;5776;51.814;4.510;2022-08-19T07:37:45;101461.06;;;19.14;93.28
11440;BME280;5776;51.814;4.510;2022-08-19T07:40:11;101465.75;;;19.13;93.88
11440;BME280;5776;51.814;4.510;2022-08-19T07:42:37;101459.59;;;19.16;93.35
11440;BME280;5776;51.814;4.510;2022-08-19T07:45:05;101467.84;;;19.16;94.33
11440;BME280;5776;51.814;4.510;2022-08-19T07:47:31;101463.97;;;19.17;94.08
11440;BME280;5776;51.814;4.510;2022-08-19T07:49:57;101471.06;;;19.18;94.46
11440;BME280;5776;51.814;4.510;2022-08-19T07:52:23;101479.31;;;19.18;94.39
11440;BME280;5776;51.814;4.510;2022-08-19T07:54:49;101480.16;;;19.19;94.53
11440;BME280;5776;51.814;4.510;2022-08-19T07:57:18;101479.00;;;19.20;94.70
11440;BME280;5776;51.814;4.510;2022-08-19T07:59:44;101485.00;;;19.22;94.98
11440;BME280;5776;51.814;4.510;2022-08-19T08:02:10;101491.63;;;19.21;94.87
11440;BME280;5776;51.814;4.510;2022-08-19T08:04:36;101490.50;;;19.22;94.70
11440;BME280;5776;51.814;4.510;2022-08-19T08:07:21;101485.78;;;19.23;94.11
11440;BME280;5776;51.814;4.510;2022-08-19T08:10:06;101484.69;;;19.24;94.07
11440;BME280;5776;51.814;4.510;2022-08-19T08:12:37;101484.81;;;19.27;94.30
11440;BME280;5776;51.814;4.510;2022-08-19T08:15:13;101486.88;;;19.30;95.20
11440;BME280;5776;51.814;4.510;2022-08-19T08:17:42;101492.09;;;19.32;95.19
11440;BME280;5776;51.814;4.510;2022-08-19T08:20:09;101490.44;;;19.31;95.18
11440;BME280;5776;51.814;4.510;2022-08-19T08:22:35;101492.09;;;19.32;95.18
11440;BME280;5776;51.814;4.510;2022-08-19T08:25:23;101491.72;;;19.33;95.23
11440;BME280;5776;51.814;4.510;2022-08-19T08:27:50;101491.09;;;19.36;95.59
11440;BME280;5776;51.814;4.510;2022-08-19T08:30:24;101490.75;;;19.38;95.72
11440;BME280;5776;51.814;4.510;2022-08-19T08:32:51;101493.66;;;19.41;95.79
11440;BME280;5776;51.814;4.510;2022-08-19T08:35:21;101491.69;;;19.42;96.06
11440;BME280;5776;51.814;4.510;2022-08-19T08:37:49;101504.31;;;19.43;95.08
11440;BME280;5776;51.814;4.510;2022-08-19T08:40:39;101504.81;;;19.45;94.84
11440;BME280;5776;51.814;4.510;2022-08-19T08:43:29;101507.25;;;19.47;94.80
11440;BME280;5776;51.814;4.510;2022-08-19T08:46:01;101501.38;;;19.48;95.41
11440;BME280;5776;51.814;4.510;2022-08-19T08:48:47;101509.00;;;19.51;94.45
11440;BME280;5776;51.814;4.510;2022-08-19T08:51:20;101501.84;;;19.50;95.26
11440;BME280;5776;51.814;4.510;2022-08-19T08:53:49;101509.00;;;19.51;94.52
11440;BME280;5776;51.814;4.510;2022-08-19T08:56:16;101507.53;;;19.54;94.66
11440;BME280;5776;51.814;4.510;2022-08-19T08:58:58;101506.06;;;19.56;94.84
11440;BME280;5776;51.814;4.510;2022-08-19T09:01:25;101507.66;;;19.57;95.06
11440;BME280;5776;51.814;4.510;2022-08-19T09:03:51;101502.94;;;19.58;94.84
11440;BME280;5776;51.814;4.510;2022-08-19T09:09:19;101511.22;;;19.58;94.09
11440;BME280;5776;51.814;4.510;2022-08-19T09:17:02;101504.72;;;19.62;94.32
11440;BME280;5776;51.814;4.510;2022-08-19T09:19:35;101505.66;;;19.67;94.60
11440;BME280;5776;51.814;4.510;2022-08-19T09:22:12;101504.34;;;19.73;93.98
11440;BME280;5776;51.814;4.510;2022-08-19T09:24:38;101508.38;;;19.75;94.04
11440;BME280;5776;51.814;4.510;2022-08-19T09:27:05;101508.88;;;19.77;94.51
11440;BME280;5776;51.814;4.510;2022-08-19T09:29:30;101511.28;;;19.79;94.28
11440;BME280;5776;51.814;4.510;2022-08-19T09:31:56;101505.44;;;19.80;95.23
11440;BME280;5776;51.814;4.510;2022-08-19T09:34:22;101504.63;;;19.80;94.52
11440;BME280;5776;51.814;4.510;2022-08-19T09:36:49;101507.88;;;19.82;94.93
11440;BME280;5776;51.814;4.510;2022-08-19T09:39:18;101516.63;;;19.84;94.13
11440;BME280;5776;51.814;4.510;2022-08-19T09:41:44;101513.97;;;19.88;94.73
11440;BME280;5776;51.814;4.510;2022-08-19T09:44:10;101524.19;;;19.87;94.07
11440;BME280;5776;51.814;4.510;2022-08-19T09:46:38;101519.97;;;19.90;93.96
11440;BME280;5776;51.814;4.510;2022-08-19T09:49:04;101516.41;;;19.89;94.08
11440;BME280;5776;51.814;4.510;2022-08-19T09:51:32;101517.53;;;19.88;94.09
11440;BME280;5776;51.814;4.510;2022-08-19T09:54:00;101518.81;;;19.91;94.36
11440;BME280;5776;51.814;4.510;2022-08-19T09:56:28;101516.06;;;19.91;93.92
11440;BME280;5776;51.814;4.510;2022-08-19T09:58:54;101516.06;;;19.91;93.12
11440;BME280;5776;51.814;4.510;2022-08-19T10:01:26;101513.78;;;19.93;92.91
11440;BME280;5776;51.814;4.510;2022-08-19T10:03:54;101520.56;;;19.95;92.70
11440;BME280;5776;51.814;4.510;2022-08-19T10:06:21;101522.00;;;20.01;92.34
11440;BME280;5776;51.814;4.510;2022-08-19T10:08:48;101518.97;;;20.15;92.14
11440;BME280;5776;51.814;4.510;2022-08-19T10:11:15;101523.13;;;20.21;91.52
11440;BME280;5776;51.814;4.510;2022-08-19T10:13:43;101520.38;;;20.21;91.25
11440;BME280;5776;51.814;4.510;2022-08-19T10:16:13;101515.69;;;20.22;91.33
11440;BME280;5776;51.814;4.510;2022-08-19T10:18:40;101521.66;;;20.24;91.15
11440;BME280;5776;51.814;4.510;2022-08-19T10:21:11;101508.00;;;20.27;90.52
11440;BME280;5776;51.814;4.510;2022-08-19T10:23:38;101511.56;;;20.28;90.97
11440;BME280;5776;51.814;4.510;2022-08-19T10:26:06;101511.34;;;20.33;90.79
11440;BME280;5776;51.814;4.510;2022-08-19T10:28:34;101509.88;;;20.36;91.79
11440;BME280;5776;51.814;4.510;2022-08-19T10:31:10;101515.06;;;20.37;91.53
11440;BME280;5776;51.814;4.510;2022-08-19T10:33:37;101512.41;;;20.41;91.97
11440;BME280;5776;51.814;4.510;2022-08-19T10:36:11;101510.94;;;20.43;92.74
11440;BME280;5776;51.814;4.510;2022-08-19T10:38:37;101518.88;;;20.45;92.69
11440;BME280;5776;51.814;4.510;2022-08-19T10:41:15;101512.22;;;20.46;93.45
11440;BME280;5776;51.814;4.510;2022-08-19T10:43:41;101514.31;;;20.49;93.54
11440;BME280;5776;51.814;4.510;2022-08-19T10:46:09;101507.16;;;20.48;93.91
11440;BME280;5776;51.814;4.510;2022-08-19T10:48:35;101512.97;;;20.55;94.28
11440;BME280;5776;51.814;4.510;2022-08-19T10:51:03;101510.69;;;20.57;93.36
11440;BME280;5776;51.814;4.510;2022-08-19T10:53:48;101511.16;;;20.59;94.40
11440;BME280;5776;51.814;4.510;2022-08-19T10:56:14;101512.75;;;20.60;94.17
11440;BME280;5776;51.814;4.510;2022-08-19T10:58:59;101512.44;;;20.62;94.74
11440;BME280;5776;51.814;4.510;2022-08-19T11:01:26;101505.28;;;20.61;95.01
11440;BME280;5776;51.814;4.510;2022-08-19T11:03:52;101509.31;;;20.63;94.86
11440;BME280;5776;51.814;4.510;2022-08-19T11:06:19;101505.88;;;20.66;95.03
11440;BME280;5776;51.814;4.510;2022-08-19T11:08:46;101509.44;;;20.67;95.23
11440;BME280;5776;51.814;4.510;2022-08-19T11:11:12;101522.31;;;20.63;95.32
11440;BME280;5776;51.814;4.510;2022-08-19T11:13:40;101516.09;;;20.66;96.08
11440;BME280;5776;51.814;4.510;2022-08-19T11:16:10;101518.06;;;20.65;95.98
11440;BME280;5776;51.814;4.510;2022-08-19T11:18:40;101519.22;;;20.64;96.30
11440;BME280;5776;51.814;4.510;2022-08-19T11:21:14;101514.81;;;20.63;96.75
11440;BME280;5776;51.814;4.510;2022-08-19T11:23:43;101519.53;;;20.63;97.13
11440;BME280;5776;51.814;4.510;2022-08-19T11:26:09;101518.88;;;20.66;98.19
11440;BME280;5776;51.814;4.510;2022-08-19T11:28:36;101511.75;;;20.65;99.00
11440;BME280;5776;51.814;4.510;2022-08-19T11:31:02;101511.06;;;20.68;98.68
11440;BME280;5776;51.814;4.510;2022-08-19T11:33:30;101510.50;;;20.75;98.96
11440;BME280;5776;51.814;4.510;2022-08-19T11:35:58;101520.84;;;20.78;97.83
11440;BME280;5776;51.814;4.510;2022-08-19T11:38:25;101513.97;;;20.84;98.20
11440;BME280;5776;51.814;4.510;2022-08-19T11:40:59;101510.88;;;20.85;96.97
11440;BME280;5776;51.814;4.510;2022-08-19T11:43:25;101508.59;;;20.87;96.47
11440;BME280;5776;51.814;4.510;2022-08-19T11:45:55;101512.25;;;20.91;97.10
11440;BME280;5776;51.814;4.510;2022-08-19T11:48:21;101506.06;;;20.95;96.80
11440;BME280;5776;51.814;4.510;2022-08-19T11:50:49;101512.97;;;21.01;96.97
11440;BME280;5776;51.814;4.510;2022-08-19T11:53:17;101512.97;;;21.01;96.63
11440;BME280;5776;51.814;4.510;2022-08-19T11:55:44;101510.91;;;20.98;96.66
11440;BME280;5776;51.814;4.510;2022-08-19T11:58:12;101519.50;;;20.96;96.92
11440;BME280;5776;51.814;4.510;2022-08-19T12:00:38;101516.75;;;20.96;96.33
11440;BME280;5776;51.814;4.510;2022-08-19T12:03:05;101518.03;;;20.99;96.50
11440;BME280;5776;51.814;4.510;2022-08-19T12:05:31;101518.50;;;21.01;96.33
11440;BME280;5776;51.814;4.510;2022-08-19T12:07:57;101513.44;;;21.03;95.83
11440;BME280;5776;51.814;4.510;2022-08-19T12:10:24;101514.59;;;21.02;96.15
11440;BME280;5776;51.814;4.510;2022-08-19T12:12:50;101516.88;;;21.00;96.58
11440;BME280;5776;51.814;4.510;2022-08-19T12:15:16;101512.16;;;21.00;95.82
11440;BME280;5776;51.814;4.510;2022-08-19T12:17:42;101514.59;;;21.02;95.98
11440;BME280;5776;51.814;4.510;2022-08-19T12:20:09;101517.69;;;21.00;95.52
11440;BME280;5776;51.814;4.510;2022-08-19T12:22:37;101523.31;;;21.04;96.30
11440;BME280;5776;51.814;4.510;2022-08-19T12:25:04;101522.06;;;21.01;96.94
11440;BME280;5776;51.814;4.510;2022-08-19T12:27:31;101527.94;;;21.00;97.17
11440;BME280;5776;51.814;4.510;2022-08-19T12:29:57;101521.94;;;20.98;98.10
11440;BME280;5776;51.814;4.510;2022-08-19T12:32:23;101515.94;;;20.96;98.24
11440;BME280;5776;51.814;4.510;2022-08-19T12:34:50;101522.16;;;20.92;98.13
11440;BME280;5776;51.814;4.510;2022-08-19T12:37:16;101515.84;;;20.92;99.03
11440;BME280;5776;51.814;4.510;2022-08-19T12:39:42;101519.63;;;20.87;98.70
11440;BME280;5776;51.814;4.510;2022-08-19T12:42:09;101527.75;;;20.84;99.37
11440;BME280;5776;51.814;4.510;2022-08-19T12:44:37;101518.69;;;20.83;100.00
11440;BME280;5776;51.814;4.510;2022-08-19T12:47:04;101515.44;;;20.81;100.00
11440;BME280;5776;51.814;4.510;2022-08-19T12:49:30;101513.84;;;20.80;100.00
11440;BME280;5776;51.814;4.510;2022-08-19T12:52:00;101522.59;;;20.82;100.00
11440;BME280;5776;51.814;4.510;2022-08-19T12:54:27;101516.28;;;20.82;99.59
11440;BME280;5776;51.814;4.510;2022-08-19T12:56:53;101518.69;;;20.83;100.00
11440;BME280;5776;51.814;4.510;2022-08-19T12:59:19;101519.84;;;20.82;99.82
11440;BME280;5776;51.814;4.510;2022-08-19T13:01:45;101512.34;;;20.83;100.00
11440;BME280;5776;51.814;4.510;2022-08-19T13:04:11;101510.75;;;20.82;100.00
11440;BME280;5776;51.814;4.510;2022-08-19T13:06:37;101517.88;;;20.83;100.00
11440;BME280;5776;51.814;4.510;2022-08-19T13:09:04;101516.28;;;20.82;99.49
11440;BME280;5776;51.814;4.510;2022-08-19T13:11:31;101520.97;;;20.81;100.00
11440;BME280;5776;51.814;4.510;2022-08-19T13:14:00;101518.69;;;20.83;100.00
11440;BME280;5776;51.814;4.510;2022-08-19T13:16:27;101507.63;;;20.83;99.24
11440;BME280;5776;51.814;4.510;2022-08-19T13:18:54;101512.34;;;20.83;99.16